createdAt,value
2023-03-29T00:00:17.160Z,99223.38
2023-03-29T00:02:48.889Z,99223.22
2023-03-29T00:05:25.862Z,99220.52
2023-03-29T00:08:02.246Z,99215.33
2023-03-29T00:10:30.344Z,99217.42
2023-03-29T00:12:57.665Z,99216.56
2023-03-29T00:15:26.047Z,99219.15
2023-03-29T00:17:53.488Z,99215.13
2023-03-29T00:20:20.952Z,99213.02
2023-03-29T00:22:47.941Z,99217.41
2023-03-29T00:25:15.059Z,99215.99
2023-03-29T00:27:42.396Z,99215.31
2023-03-29T00:30:10.898Z,99212.82
2023-03-29T00:32:37.972Z,99214.45
2023-03-29T00:35:06.569Z,99215.07
2023-03-29T00:37:34.063Z,99211.08
2023-03-29T00:40:01.378Z,99206.83
2023-03-29T00:42:28.487Z,99205.53
2023-03-29T00:45:04.751Z,99201.23
2023-03-29T00:47:38.191Z,99199.45
2023-03-29T00:50:14.819Z,99196.23
2023-03-29T00:52:45.060Z,99198.88
2023-03-29T00:55:22.660Z,99197.55
2023-03-29T00:57:52.433Z,99198.22
2023-03-29T01:00:22.988Z,99196.52
2023-03-29T01:03:00.055Z,99192.44
2023-03-29T01:05:34.745Z,99184.82
2023-03-29T01:08:18.834Z,99183.00
2023-03-29T01:10:50.978Z,99183.29
2023-03-29T01:13:58.133Z,99179.98
2023-03-29T01:16:39.677Z,99179.52
2023-03-29T01:19:11.276Z,99175.27
2023-03-29T01:22:15.079Z,99173.95
2023-03-29T01:24:58.952Z,99174.79
2023-03-29T01:27:47.906Z,99172.42
2023-03-29T01:30:24.135Z,99163.97
2023-03-29T01:33:03.529Z,99162.69
2023-03-29T01:35:40.457Z,99160.39
2023-03-29T01:38:15.825Z,99154.20
2023-03-29T01:40:43.066Z,99157.05
2023-03-29T01:43:57.234Z,99151.58
2023-03-29T01:46:35.964Z,99153.27
2023-03-29T01:49:42.905Z,99149.67
2023-03-29T01:52:23.061Z,99146.92
2023-03-29T01:55:03.328Z,99151.85
2023-03-29T01:57:33.862Z,99155.04
2023-03-29T02:00:08.791Z,99157.16
2023-03-29T02:02:39.633Z,99155.92
2023-03-29T02:05:10.170Z,99152.00
2023-03-29T02:07:39.395Z,99153.73
2023-03-29T02:10:08.939Z,99156.76
2023-03-29T02:12:36.386Z,99153.95
2023-03-29T02:15:07.294Z,99157.42
2023-03-29T02:17:34.368Z,99154.23
2023-03-29T02:20:23.001Z,99154.34
2023-03-29T02:22:57.933Z,99154.96
2023-03-29T02:25:26.319Z,99155.48
2023-03-29T02:27:54.372Z,99150.92
2023-03-29T02:30:22.753Z,99151.76
2023-03-29T02:33:02.290Z,99150.92
2023-03-29T02:35:39.497Z,99152.70
2023-03-29T02:38:10.794Z,99149.25
2023-03-29T02:40:41.520Z,99151.73
2023-03-29T02:43:10.993Z,99157.93
2023-03-29T02:45:39.997Z,99159.23
2023-03-29T02:48:12.104Z,99160.11
2023-03-29T02:50:41.970Z,99161.40
2023-03-29T02:53:38.528Z,99158.20
2023-03-29T02:56:06.426Z,99158.16
2023-03-29T02:58:33.250Z,99158.31
2023-03-29T03:01:02.572Z,99155.22
2023-03-29T03:03:29.873Z,99154.02
2023-03-29T03:05:57.052Z,99153.75
2023-03-29T03:08:29.916Z,99155.41
2023-03-29T03:11:05.103Z,99154.30
2023-03-29T03:13:32.527Z,99153.58
2023-03-29T03:15:59.383Z,99154.08
2023-03-29T03:18:26.326Z,99153.95
2023-03-29T03:20:59.492Z,99152.64
2023-03-29T03:23:27.514Z,99151.85
2023-03-29T03:25:55.511Z,99150.42
2023-03-29T03:28:24.541Z,99148.67
2023-03-29T03:30:51.575Z,99151.73
2023-03-29T03:33:19.772Z,99151.49
2023-03-29T03:35:48.390Z,99152.14
2023-03-29T03:38:15.765Z,99151.34
2023-03-29T03:40:43.245Z,99153.25
2023-03-29T03:43:10.710Z,99150.90
2023-03-29T03:45:38.168Z,99151.65
2023-03-29T03:48:05.877Z,99155.77
2023-03-29T03:50:33.969Z,99154.34
2023-03-29T03:53:01.027Z,99152.57
2023-03-29T03:55:30.405Z,99149.95
2023-03-29T03:57:57.666Z,99145.58
2023-03-29T04:00:25.044Z,99144.34
2023-03-29T04:02:57.185Z,99145.61
2023-03-29T04:05:24.470Z,99142.58
2023-03-29T04:07:51.466Z,99147.44
2023-03-29T04:10:18.515Z,99146.17
2023-03-29T04:12:51.875Z,99144.75
2023-03-29T04:15:20.866Z,99147.91
2023-03-29T04:17:47.919Z,99144.52
2023-03-29T04:20:15.426Z,99142.48
2023-03-29T04:22:42.801Z,99141.04
2023-03-29T04:25:11.937Z,99139.38
2023-03-29T04:27:39.406Z,99138.00
2023-03-29T04:30:07.678Z,99137.87
2023-03-29T04:32:35.199Z,99140.04
2023-03-29T04:35:02.905Z,99140.34
2023-03-29T04:37:30.063Z,99139.48
2023-03-29T04:40:00.554Z,99137.27
2023-03-29T04:42:28.124Z,99136.46
2023-03-29T04:44:55.112Z,99135.65
2023-03-29T04:47:22.159Z,99135.38
2023-03-29T04:49:49.376Z,99139.55
2023-03-29T04:52:16.249Z,99142.11
2023-03-29T04:54:43.172Z,99143.36
2023-03-29T04:57:10.257Z,99142.19
2023-03-29T04:59:37.141Z,99144.87
2023-03-29T05:02:05.347Z,99139.30
2023-03-29T05:04:33.356Z,99138.30
2023-03-29T05:07:01.926Z,99138.57
2023-03-29T05:09:29.780Z,99141.45
2023-03-29T05:11:56.811Z,99146.57
2023-03-29T05:14:23.842Z,99145.14
2023-03-29T05:16:50.774Z,99142.68
2023-03-29T05:19:18.042Z,99136.10
2023-03-29T05:21:45.681Z,99140.60
2023-03-29T05:24:12.843Z,99136.45
2023-03-29T05:26:40.500Z,99140.08
2023-03-29T05:29:09.682Z,99143.52
2023-03-29T05:31:39.783Z,99141.13
2023-03-29T05:34:07.319Z,99144.52
2023-03-29T05:36:34.640Z,99150.63
2023-03-29T05:39:02.248Z,99150.81
2023-03-29T05:41:29.699Z,99153.66
2023-03-29T05:43:57.123Z,99150.83
2023-03-29T05:46:24.305Z,99149.90
2023-03-29T05:48:51.699Z,99143.81
2023-03-29T05:51:19.518Z,99144.98
2023-03-29T05:53:46.620Z,99141.17
2023-03-29T05:56:16.492Z,99141.50
2023-03-29T05:58:43.831Z,99138.05
2023-03-29T06:01:15.038Z,99143.45
2023-03-29T06:03:42.910Z,99142.94
2023-03-29T06:06:11.002Z,99142.27
2023-03-29T06:08:38.084Z,99138.06
2023-03-29T06:11:09.137Z,99145.20
2023-03-29T06:13:37.399Z,99142.19
2023-03-29T06:16:06.115Z,99140.84
2023-03-29T06:18:33.981Z,99140.42
2023-03-29T06:21:03.360Z,99137.78
2023-03-29T06:23:31.285Z,99142.56
2023-03-29T06:26:00.471Z,99147.19
2023-03-29T06:28:27.884Z,99151.20
2023-03-29T06:30:56.894Z,99153.46
2023-03-29T06:33:25.564Z,99156.83
2023-03-29T06:35:52.906Z,99153.75
2023-03-29T06:38:21.185Z,99156.50
2023-03-29T06:40:48.926Z,99158.61
2023-03-29T06:43:16.039Z,99161.36
2023-03-29T06:45:43.193Z,99163.26
2023-03-29T06:48:11.625Z,99160.48
2023-03-29T06:50:38.750Z,99166.38
2023-03-29T06:53:06.356Z,99166.76
2023-03-29T06:55:33.439Z,99168.17
2023-03-29T06:58:02.711Z,99167.41
2023-03-29T07:00:31.139Z,99167.23
2023-03-29T07:03:01.561Z,99165.23
2023-03-29T07:05:29.054Z,99165.73
2023-03-29T07:08:12.292Z,99160.58
2023-03-29T07:10:41.627Z,99159.63
2023-03-29T07:13:13.892Z,99159.14
2023-03-29T07:15:41.958Z,99159.50
2023-03-29T07:18:10.805Z,99163.52
2023-03-29T07:20:39.263Z,99164.95
2023-03-29T07:23:08.408Z,99163.93
2023-03-29T07:25:37.148Z,99163.43
2023-03-29T07:28:05.039Z,99164.98
2023-03-29T07:30:32.829Z,99163.55
2023-03-29T07:33:00.115Z,99159.52
2023-03-29T07:35:29.399Z,99160.48
2023-03-29T07:37:57.838Z,99162.11
2023-03-29T07:40:26.612Z,99162.44
2023-03-29T07:42:55.761Z,99166.81
2023-03-29T07:45:26.928Z,99165.36
2023-03-29T07:48:00.189Z,99159.83
2023-03-29T07:50:33.159Z,99152.56
2023-03-29T07:53:02.149Z,99161.70
2023-03-29T07:55:29.676Z,99158.48
2023-03-29T07:57:57.404Z,99158.14
2023-03-29T08:00:25.479Z,99154.36
2023-03-29T08:02:53.803Z,99150.85
2023-03-29T08:05:40.134Z,99145.82
2023-03-29T08:08:08.426Z,99145.39
2023-03-29T08:10:37.407Z,99142.09
2023-03-29T08:13:09.440Z,99137.89
2023-03-29T08:15:39.371Z,99139.11
2023-03-29T08:18:08.577Z,99139.86
2023-03-29T08:20:35.756Z,99140.17
2023-03-29T08:23:03.190Z,99134.82
2023-03-29T08:25:30.654Z,99132.85
2023-03-29T08:27:57.916Z,99131.05
2023-03-29T08:30:25.492Z,99130.34
2023-03-29T08:32:55.291Z,99132.66
2023-03-29T08:35:23.411Z,99125.84
2023-03-29T08:37:50.397Z,99129.48
2023-03-29T08:40:22.407Z,99123.30
2023-03-29T08:43:02.213Z,99115.83
2023-03-29T08:45:53.570Z,99121.53
2023-03-29T08:48:42.825Z,99120.49
2023-03-29T08:51:20.218Z,99114.42
2023-03-29T08:53:52.859Z,99113.02
2023-03-29T08:56:31.527Z,99117.25
2023-03-29T08:59:01.894Z,99115.32
2023-03-29T09:01:35.248Z,99113.30
2023-03-29T09:04:25.804Z,99109.47
2023-03-29T09:06:53.402Z,99104.18
2023-03-29T09:09:23.184Z,99100.52
2023-03-29T09:12:14.671Z,99101.70
2023-03-29T09:15:09.201Z,99098.66
2023-03-29T09:17:36.474Z,99097.62
2023-03-29T09:20:14.097Z,99093.02
2023-03-29T09:22:47.562Z,99088.17
2023-03-29T09:25:21.787Z,99085.44
2023-03-29T09:27:50.698Z,99079.16
2023-03-29T09:30:36.116Z,99075.66
2023-03-29T09:33:12.889Z,99071.59
2023-03-29T09:35:47.113Z,99068.61
2023-03-29T09:38:17.825Z,99075.02
2023-03-29T09:40:58.282Z,99071.86
2023-03-29T09:43:36.379Z,99072.13
2023-03-29T09:46:12.405Z,99072.84
2023-03-29T09:48:44.203Z,99070.93
2023-03-29T09:51:13.480Z,99076.73
2023-03-29T09:53:40.788Z,99070.61
2023-03-29T09:56:09.242Z,99069.92
2023-03-29T09:58:55.044Z,99068.80
2023-03-29T10:01:22.496Z,99068.77
2023-03-29T10:03:52.572Z,99061.44
2023-03-29T10:06:27.112Z,99063.29
2023-03-29T10:08:57.051Z,99061.73
2023-03-29T10:11:37.283Z,99066.24
2023-03-29T10:14:17.373Z,99064.79
2023-03-29T10:16:46.702Z,99059.73
2023-03-29T10:19:22.732Z,99058.17
2023-03-29T10:21:51.996Z,99056.49
2023-03-29T10:24:24.581Z,99057.68
2023-03-29T10:26:58.172Z,99052.36
2023-03-29T10:29:26.467Z,99049.91
2023-03-29T10:31:54.876Z,99046.40
2023-03-29T10:34:26.315Z,99050.34
2023-03-29T10:37:01.573Z,99051.81
2023-03-29T10:39:34.123Z,99046.14
2023-03-29T10:42:04.550Z,99043.00
2023-03-29T10:44:35.287Z,99036.58
2023-03-29T10:47:22.492Z,99029.76
2023-03-29T10:49:56.859Z,99027.42
2023-03-29T10:52:25.619Z,99022.11
2023-03-29T10:54:56.656Z,99021.73
2023-03-29T10:57:53.191Z,99020.60
2023-03-29T11:00:42.998Z,99016.90
2023-03-29T11:03:28.871Z,99013.33
2023-03-29T11:06:22.312Z,99007.77
2023-03-29T11:09:02.601Z,98997.74
2023-03-29T11:12:08.250Z,98993.81
2023-03-29T11:15:06.986Z,98985.60
2023-03-29T11:17:51.858Z,98975.70
2023-03-29T11:20:26.614Z,98977.75
2023-03-29T11:23:21.385Z,98973.25
2023-03-29T11:26:04.410Z,98966.44
2023-03-29T11:28:46.241Z,98965.96
2023-03-29T11:31:31.409Z,98964.08
2023-03-29T11:34:05.092Z,98956.08
2023-03-29T11:36:54.202Z,98948.69
2023-03-29T11:39:59.362Z,98949.05
2023-03-29T11:42:33.417Z,98947.28
2023-03-29T11:45:03.216Z,98942.94
2023-03-29T11:47:33.957Z,98942.76
2023-03-29T11:50:06.893Z,98936.29
2023-03-29T11:52:58.099Z,98931.35
2023-03-29T11:55:38.502Z,98929.82
2023-03-29T11:58:14.710Z,98929.46
2023-03-29T12:00:42.110Z,98935.46
2023-03-29T12:03:37.745Z,98938.17
2023-03-29T12:06:22.610Z,98929.85
2023-03-29T12:09:21.952Z,98930.80
2023-03-29T12:12:08.524Z,98923.54
2023-03-29T12:14:49.632Z,98915.35
2023-03-29T12:17:24.687Z,98917.09
2023-03-29T12:20:07.488Z,98910.55
2023-03-29T12:22:34.366Z,98910.28
2023-03-29T12:25:04.087Z,98914.52
2023-03-29T12:28:17.100Z,98906.03
2023-03-29T12:31:10.410Z,98908.13
2023-03-29T12:34:12.871Z,98904.89
2023-03-29T12:36:48.756Z,98908.35
2023-03-29T12:39:19.092Z,98903.70
2023-03-29T12:41:49.147Z,98900.56
2023-03-29T12:44:20.835Z,98900.38
2023-03-29T12:46:53.904Z,98886.29
2023-03-29T12:49:32.052Z,98883.85
2023-03-29T12:52:02.139Z,98880.11
2023-03-29T12:54:33.685Z,98879.73
2023-03-29T12:57:19.080Z,98880.35
2023-03-29T12:59:50.046Z,98881.95
2023-03-29T13:02:19.959Z,98875.61
2023-03-29T13:04:54.076Z,98872.59
2023-03-29T13:07:24.208Z,98870.75
2023-03-29T13:10:03.880Z,98862.34
2023-03-29T13:12:45.000Z,98865.93
2023-03-29T13:15:14.917Z,98863.52
2023-03-29T13:18:08.215Z,98863.02
2023-03-29T13:20:59.124Z,98863.42
2023-03-29T13:24:02.313Z,98854.65
2023-03-29T13:26:47.947Z,98852.47
2023-03-29T13:29:20.908Z,98852.73
2023-03-29T13:32:20.076Z,98847.97
2023-03-29T13:35:15.318Z,98839.36
2023-03-29T13:37:49.147Z,98836.45
2023-03-29T13:40:33.197Z,98826.73
2023-03-29T13:43:21.413Z,98831.91
2023-03-29T13:45:57.468Z,98826.52
2023-03-29T13:48:30.230Z,98821.55
2023-03-29T13:51:08.227Z,98814.30
2023-03-29T13:54:01.005Z,98817.04
2023-03-29T13:57:00.856Z,98811.13
2023-03-29T13:59:51.854Z,98812.64
2023-03-29T14:02:25.440Z,98816.09
2023-03-29T14:04:53.769Z,98811.43
2023-03-29T14:07:26.586Z,98813.17
2023-03-29T14:09:56.028Z,98814.45
2023-03-29T14:12:23.991Z,98812.77
2023-03-29T14:14:58.718Z,98816.04
2023-03-29T14:17:27.527Z,98817.88
2023-03-29T14:19:58.330Z,98816.14
2023-03-29T14:22:32.772Z,98813.71
2023-03-29T14:25:06.593Z,98811.55
2023-03-29T14:27:37.461Z,98813.33
2023-03-29T14:30:23.524Z,98807.56
2023-03-29T14:32:51.938Z,98804.53
2023-03-29T14:35:19.855Z,98799.16
2023-03-29T14:37:48.988Z,98796.67
2023-03-29T14:40:20.278Z,98791.46
2023-03-29T14:42:48.946Z,98791.89
2023-03-29T14:45:18.173Z,98784.61
2023-03-29T14:47:46.564Z,98781.52
2023-03-29T14:50:21.930Z,98781.48
2023-03-29T14:52:52.612Z,98777.91
2023-03-29T14:55:23.905Z,98777.23
2023-03-29T14:57:54.611Z,98771.06
2023-03-29T15:00:35.364Z,98765.38
2023-03-29T15:03:03.377Z,98766.27
2023-03-29T15:05:37.984Z,98760.71
2023-03-29T15:08:12.262Z,98759.13
2023-03-29T15:10:42.370Z,98762.62
2023-03-29T15:13:24.852Z,98763.73
2023-03-29T15:16:00.316Z,98758.57
2023-03-29T15:18:41.785Z,98758.30
2023-03-29T15:21:13.545Z,98754.13
2023-03-29T15:23:58.753Z,98749.32
2023-03-29T15:26:36.162Z,98751.61
2023-03-29T15:29:12.843Z,98756.70
2023-03-29T15:31:42.244Z,98754.65
2023-03-29T15:34:13.561Z,98758.11
2023-03-29T15:36:46.746Z,98758.09
2023-03-29T15:39:15.702Z,98750.64
2023-03-29T15:41:44.511Z,98747.60
2023-03-29T15:44:11.654Z,98749.33
2023-03-29T15:46:38.504Z,98749.16
2023-03-29T15:49:05.887Z,98747.35
2023-03-29T15:51:33.127Z,98746.41
2023-03-29T15:54:00.488Z,98746.34
2023-03-29T15:56:28.293Z,98746.97
2023-03-29T15:58:55.434Z,98744.87
2023-03-29T16:01:37.844Z,98745.28
2023-03-29T16:04:08.190Z,98747.38
2023-03-29T16:06:36.407Z,98746.56
2023-03-29T16:09:05.448Z,98746.27
2023-03-29T16:11:33.213Z,98738.76
2023-03-29T16:14:00.861Z,98735.44
2023-03-29T16:16:27.839Z,98731.41
2023-03-29T16:18:55.144Z,98731.17
2023-03-29T16:21:23.409Z,98732.71
2023-03-29T16:23:51.705Z,98735.01
2023-03-29T16:26:18.848Z,98731.55
2023-03-29T16:28:46.197Z,98731.31
2023-03-29T16:31:14.294Z,98734.21
2023-03-29T16:33:42.167Z,98738.23
2023-03-29T16:36:10.624Z,98736.98
2023-03-29T16:38:37.847Z,98741.45
2023-03-29T16:41:05.420Z,98740.60
2023-03-29T16:43:32.743Z,98738.79
2023-03-29T16:46:00.169Z,98740.52
2023-03-29T16:48:27.855Z,98743.73
2023-03-29T16:50:55.113Z,98744.42
2023-03-29T16:53:22.694Z,98749.08
2023-03-29T16:55:50.080Z,98754.05
2023-03-29T16:58:17.491Z,98754.90
2023-03-29T17:00:47.939Z,98749.92
2023-03-29T17:03:16.022Z,98745.86
2023-03-29T17:05:53.974Z,98743.89
2023-03-29T17:08:22.377Z,98743.29
2023-03-29T17:10:54.331Z,98746.27
2023-03-29T17:13:24.113Z,98747.20
2023-03-29T17:15:52.957Z,98751.05
2023-03-29T17:18:21.375Z,98751.11
2023-03-29T17:20:50.878Z,98749.45
2023-03-29T17:23:18.353Z,98747.45
2023-03-29T17:25:45.641Z,98744.96
2023-03-29T17:28:13.602Z,98754.45
2023-03-29T17:30:41.213Z,98757.84
2023-03-29T17:33:09.802Z,98762.86
2023-03-29T17:35:37.223Z,98766.70
2023-03-29T17:38:04.305Z,98766.08
2023-03-29T17:40:31.628Z,98764.42
2023-03-29T17:42:58.507Z,98764.00
2023-03-29T17:45:26.468Z,98765.92
2023-03-29T17:47:53.826Z,98767.20
2023-03-29T17:50:21.862Z,98766.00
2023-03-29T17:52:49.241Z,98764.94
2023-03-29T17:55:16.587Z,98761.49
2023-03-29T17:57:44.156Z,98758.77
2023-03-29T18:00:14.292Z,98767.77
2023-03-29T18:02:42.079Z,98766.98
2023-03-29T18:05:10.423Z,98766.86
2023-03-29T18:07:37.792Z,98764.59
2023-03-29T18:10:15.688Z,98768.73
2023-03-29T18:12:59.067Z,98770.18
2023-03-29T18:15:38.256Z,98774.55
2023-03-29T18:18:08.777Z,98777.10
2023-03-29T18:20:35.857Z,98778.75
2023-03-29T18:23:03.826Z,98778.71
2023-03-29T18:25:30.870Z,98782.27
2023-03-29T18:27:57.951Z,98782.55
2023-03-29T18:30:25.999Z,98785.14
2023-03-29T18:32:53.801Z,98778.79
2023-03-29T18:35:21.206Z,98783.54
2023-03-29T18:37:48.157Z,98786.48
2023-03-29T18:40:15.947Z,98780.58
2023-03-29T18:42:42.998Z,98778.64
2023-03-29T18:45:10.963Z,98777.02
2023-03-29T18:47:38.021Z,98778.05
2023-03-29T18:50:05.671Z,98772.25
2023-03-29T18:52:32.805Z,98768.62
2023-03-29T18:55:00.178Z,98768.52
2023-03-29T18:57:27.287Z,98763.52
2023-03-29T18:59:54.393Z,98767.83
2023-03-29T19:02:21.794Z,98771.19
2023-03-29T19:04:48.876Z,98769.56
2023-03-29T19:07:17.951Z,98760.77
2023-03-29T19:09:45.756Z,98763.87
2023-03-29T19:12:12.877Z,98767.40
2023-03-29T19:14:40.114Z,98775.89
2023-03-29T19:17:07.130Z,98769.69
2023-03-29T19:19:34.233Z,98768.83
2023-03-29T19:22:01.447Z,98770.20
2023-03-29T19:24:29.359Z,98775.79
2023-03-29T19:26:57.684Z,98775.68
2023-03-29T19:29:24.890Z,98769.91
2023-03-29T19:31:52.396Z,98762.86
2023-03-29T19:34:24.374Z,98765.69
2023-03-29T19:36:55.808Z,98767.35
2023-03-29T19:39:23.051Z,98770.79
2023-03-29T19:41:50.011Z,98775.23
2023-03-29T19:44:16.933Z,98774.63
2023-03-29T19:46:44.114Z,98767.80
2023-03-29T19:49:14.165Z,98763.55
2023-03-29T19:51:42.122Z,98763.50
2023-03-29T19:54:11.675Z,98763.67
2023-03-29T19:56:38.834Z,98761.94
2023-03-29T19:59:05.823Z,98757.42
2023-03-29T20:01:32.749Z,98753.86
2023-03-29T20:03:59.932Z,98748.95
2023-03-29T20:06:27.021Z,98751.13
2023-03-29T20:08:54.312Z,98756.02
2023-03-29T20:11:24.231Z,98757.92
2023-03-29T20:13:51.522Z,98752.64
2023-03-29T20:16:19.472Z,98753.36
2023-03-29T20:18:46.841Z,98751.56
2023-03-29T20:21:17.110Z,98749.23
2023-03-29T20:23:44.440Z,98741.14
2023-03-29T20:26:12.087Z,98741.51
2023-03-29T20:28:40.145Z,98740.32
2023-03-29T20:31:11.072Z,98740.52
2023-03-29T20:33:38.233Z,98734.33
2023-03-29T20:36:06.863Z,98732.55
2023-03-29T20:38:34.044Z,98735.04
2023-03-29T20:41:01.879Z,98736.88
2023-03-29T20:43:30.230Z,98731.02
2023-03-29T20:45:57.645Z,98737.44
2023-03-29T20:48:30.482Z,98733.89
2023-03-29T20:50:57.984Z,98737.05
2023-03-29T20:53:25.354Z,98737.21
2023-03-29T20:55:52.376Z,98729.98
2023-03-29T20:58:19.255Z,98733.99
2023-03-29T21:00:48.868Z,98728.08
2023-03-29T21:03:16.046Z,98733.58
2023-03-29T21:05:43.729Z,98733.84
2023-03-29T21:08:11.506Z,98731.67
2023-03-29T21:10:38.651Z,98736.77
2023-03-29T21:13:06.229Z,98732.05
2023-03-29T21:15:33.604Z,98727.96
2023-03-29T21:18:00.558Z,98726.45
2023-03-29T21:20:27.997Z,98725.52
2023-03-29T21:22:54.901Z,98726.83
2023-03-29T21:25:21.933Z,98724.80
2023-03-29T21:27:49.660Z,98717.81
2023-03-29T21:30:16.981Z,98716.11
2023-03-29T21:32:43.925Z,98716.83
2023-03-29T21:35:11.455Z,98718.19
2023-03-29T21:37:39.109Z,98711.93
2023-03-29T21:40:07.382Z,98709.72
2023-03-29T21:42:35.136Z,98710.63
2023-03-29T21:45:03.238Z,98707.11
2023-03-29T21:47:30.840Z,98703.90
2023-03-29T21:49:58.334Z,98699.98
2023-03-29T21:52:25.774Z,98697.17
2023-03-29T21:54:52.617Z,98691.95
2023-03-29T21:57:19.635Z,98693.09
2023-03-29T21:59:46.809Z,98688.52
2023-03-29T22:02:13.916Z,98689.61
2023-03-29T22:04:40.810Z,98688.95
2023-03-29T22:07:10.945Z,98691.14
2023-03-29T22:09:38.105Z,98686.41
2023-03-29T22:12:05.643Z,98687.39
2023-03-29T22:14:37.394Z,98689.40
2023-03-29T22:17:08.239Z,98687.27
2023-03-29T22:19:39.861Z,98684.61
2023-03-29T22:22:14.093Z,98680.00
2023-03-29T22:24:42.345Z,98675.98
2023-03-29T22:27:10.030Z,98674.85
2023-03-29T22:29:37.066Z,98673.11
2023-03-29T22:32:04.152Z,98671.42
2023-03-29T22:34:31.152Z,98669.26
2023-03-29T22:36:58.227Z,98669.69
2023-03-29T22:39:25.236Z,98666.25
2023-03-29T22:41:52.327Z,98661.16
2023-03-29T22:44:19.224Z,98662.62
2023-03-29T22:46:46.168Z,98667.45
2023-03-29T22:49:13.344Z,98665.29
2023-03-29T22:51:40.389Z,98663.08
2023-03-29T22:54:07.200Z,98666.36
2023-03-29T22:56:34.197Z,98658.33
2023-03-29T22:59:01.187Z,98654.19
2023-03-29T23:01:28.278Z,98656.63
2023-03-29T23:03:55.203Z,98652.83
2023-03-29T23:06:22.152Z,98653.46
2023-03-29T23:08:48.956Z,98651.80
2023-03-29T23:11:16.032Z,98653.48
2023-03-29T23:13:43.064Z,98653.74
2023-03-29T23:16:10.271Z,98653.95
2023-03-29T23:18:37.960Z,98651.83
2023-03-29T23:21:06.272Z,98649.98
2023-03-29T23:23:34.150Z,98652.74
2023-03-29T23:26:02.303Z,98655.61
2023-03-29T23:28:34.976Z,98653.98
2023-03-29T23:31:05.708Z,98653.98
2023-03-29T23:33:35.605Z,98647.84
2023-03-29T23:36:05.821Z,98649.25
2023-03-29T23:38:35.110Z,98645.39
2023-03-29T23:41:04.981Z,98651.48
2023-03-29T23:43:35.198Z,98653.38
2023-03-29T23:46:05.953Z,98649.91
2023-03-29T23:48:34.513Z,98648.13
2023-03-29T23:51:02.410Z,98645.14
2023-03-29T23:53:31.097Z,98643.53
2023-03-29T23:56:00.666Z,98638.65
2023-03-29T23:58:28.677Z,98637.70
